sensor_id;sensor_type;location;lat;lon;timestamp;temperature;humidity
74171;DHT22;62526;50.948;6.590;2023-07-20T00:01:44;21.60;85.20
74171;DHT22;62526;50.948;6.590;2023-07-20T00:04:13;21.70;84.50
74171;DHT22;62526;50.948;6.590;2023-07-20T00:06:38;21.80;84.20
74171;DHT22;62526;50.948;6.590;2023-07-20T00:09:06;21.80;84.70
74171;DHT22;62526;50.948;6.590;2023-07-20T00:11:35;21.90;84.60
74171;DHT22;62526;50.948;6.590;2023-07-20T00:14:00;21.80;84.30
74171;DHT22;62526;50.948;6.590;2023-07-20T00:16:26;21.80;84.90
74171;DHT22;62526;50.948;6.590;2023-07-20T00:18:54;21.90;85.20
74171;DHT22;62526;50.948;6.590;2023-07-20T00:21:20;21.90;85.00
74171;DHT22;62526;50.948;6.590;2023-07-20T00:23:47;21.80;85.50
74171;DHT22;62526;50.948;6.590;2023-07-20T00:26:15;21.70;85.80
74171;DHT22;62526;50.948;6.590;2023-07-20T00:28:41;24.60;88.10
74171;DHT22;62526;50.948;6.590;2023-07-20T00:31:09;21.80;85.10
74171;DHT22;62526;50.948;6.590;2023-07-20T00:33:36;21.80;85.20
74171;DHT22;62526;50.948;6.590;2023-07-20T00:36:03;21.80;85.80
74171;DHT22;62526;50.948;6.590;2023-07-20T00:38:30;21.70;86.10
74171;DHT22;62526;50.948;6.590;2023-07-20T00:40:57;21.60;86.30
74171;DHT22;62526;50.948;6.590;2023-07-20T00:43:24;21.50;86.30
74171;DHT22;62526;50.948;6.590;2023-07-20T00:45:51;21.50;86.80
74171;DHT22;62526;50.948;6.590;2023-07-20T00:48:18;21.50;87.30
74171;DHT22;62526;50.948;6.590;2023-07-20T00:50:45;21.50;87.80
74171;DHT22;62526;50.948;6.590;2023-07-20T00:53:12;21.50;88.50
74171;DHT22;62526;50.948;6.590;2023-07-20T00:55:39;21.40;88.50
74171;DHT22;62526;50.948;6.590;2023-07-20T00:58:06;21.50;88.60
74171;DHT22;62526;50.948;6.590;2023-07-20T01:00:32;21.50;88.40
74171;DHT22;62526;50.948;6.590;2023-07-20T01:02:59;21.40;88.50
74171;DHT22;62526;50.948;6.590;2023-07-20T01:05:30;21.10;88.20
74171;DHT22;62526;50.948;6.590;2023-07-20T01:08:10;21.10;88.70
74171;DHT22;62526;50.948;6.590;2023-07-20T01:10:28;21.10;88.60
74171;DHT22;62526;50.948;6.590;2023-07-20T01:12:52;21.00;89.10
74171;DHT22;62526;50.948;6.590;2023-07-20T01:15:19;21.20;88.50
74171;DHT22;62526;50.948;6.590;2023-07-20T01:17:45;21.20;88.40
74171;DHT22;62526;50.948;6.590;2023-07-20T01:20:14;21.20;88.10
74171;DHT22;62526;50.948;6.590;2023-07-20T01:25:32;21.20;88.90
74171;DHT22;62526;50.948;6.590;2023-07-20T01:30:56;21.10;90.00
74171;DHT22;62526;50.948;6.590;2023-07-20T01:33:23;21.10;90.10
74171;DHT22;62526;50.948;6.590;2023-07-20T01:35:54;21.10;90.30
74171;DHT22;62526;50.948;6.590;2023-07-20T01:38:20;21.20;90.50
74171;DHT22;62526;50.948;6.590;2023-07-20T01:40:48;21.20;90.50
74171;DHT22;62526;50.948;6.590;2023-07-20T01:43:14;21.10;90.70
74171;DHT22;62526;50.948;6.590;2023-07-20T01:45:41;21.10;90.80
74171;DHT22;62526;50.948;6.590;2023-07-20T01:48:08;21.10;90.90
74171;DHT22;62526;50.948;6.590;2023-07-20T01:50:35;21.00;90.90
74171;DHT22;62526;50.948;6.590;2023-07-20T01:53:02;21.00;91.20
74171;DHT22;62526;50.948;6.590;2023-07-20T01:55:30;21.00;91.20
74171;DHT22;62526;50.948;6.590;2023-07-20T01:57:57;20.90;91.20
74171;DHT22;62526;50.948;6.590;2023-07-20T02:00:25;20.90;91.50
74171;DHT22;62526;50.948;6.590;2023-07-20T02:02:51;20.80;91.50
74171;DHT22;62526;50.948;6.590;2023-07-20T02:05:18;20.90;91.50
74171;DHT22;62526;50.948;6.590;2023-07-20T02:07:45;20.80;91.00
74171;DHT22;62526;50.948;6.590;2023-07-20T02:10:12;20.80;91.30
74171;DHT22;62526;50.948;6.590;2023-07-20T02:12:39;20.80;91.20
74171;DHT22;62526;50.948;6.590;2023-07-20T02:15:06;20.70;91.00
74171;DHT22;62526;50.948;6.590;2023-07-20T02:17:33;20.70;91.00
74171;DHT22;62526;50.948;6.590;2023-07-20T02:20:00;20.60;91.10
74171;DHT22;62526;50.948;6.590;2023-07-20T02:22:27;20.60;91.30
74171;DHT22;62526;50.948;6.590;2023-07-20T02:24:53;20.50;91.50
74171;DHT22;62526;50.948;6.590;2023-07-20T02:27:20;20.50;91.10
74171;DHT22;62526;50.948;6.590;2023-07-20T02:29:47;20.50;91.40
74171;DHT22;62526;50.948;6.590;2023-07-20T02:32:13;20.50;91.40
74171;DHT22;62526;50.948;6.590;2023-07-20T02:34:40;20.30;91.60
74171;DHT22;62526;50.948;6.590;2023-07-20T02:37:07;20.00;92.00
74171;DHT22;62526;50.948;6.590;2023-07-20T02:39:33;19.90;92.20
74171;DHT22;62526;50.948;6.590;2023-07-20T02:42:00;19.90;92.40
74171;DHT22;62526;50.948;6.590;2023-07-20T02:44:27;20.00;92.40
74171;DHT22;62526;50.948;6.590;2023-07-20T02:46:54;20.10;92.30
74171;DHT22;62526;50.948;6.590;2023-07-20T02:49:21;20.00;92.50
74171;DHT22;62526;50.948;6.590;2023-07-20T02:51:48;20.00;92.50
74171;DHT22;62526;50.948;6.590;2023-07-20T02:54:15;20.00;92.50
74171;DHT22;62526;50.948;6.590;2023-07-20T02:56:41;19.90;92.70
74171;DHT22;62526;50.948;6.590;2023-07-20T02:59:08;19.90;92.70
74171;DHT22;62526;50.948;6.590;2023-07-20T03:01:35;20.00;92.70
74171;DHT22;62526;50.948;6.590;2023-07-20T03:04:01;20.10;92.60
74171;DHT22;62526;50.948;6.590;2023-07-20T03:06:28;20.10;92.60
74171;DHT22;62526;50.948;6.590;2023-07-20T03:08:55;20.00;92.50
74171;DHT22;62526;50.948;6.590;2023-07-20T03:11:21;20.00;92.50
74171;DHT22;62526;50.948;6.590;2023-07-20T03:13:48;20.00;92.50
74171;DHT22;62526;50.948;6.590;2023-07-20T03:16:17;20.00;92.80
74171;DHT22;62526;50.948;6.590;2023-07-20T03:18:43;20.10;92.70
74171;DHT22;62526;50.948;6.590;2023-07-20T03:21:09;20.10;92.60
74171;DHT22;62526;50.948;6.590;2023-07-20T03:23:37;20.00;92.80
74171;DHT22;62526;50.948;6.590;2023-07-20T03:26:04;20.00;92.70
74171;DHT22;62526;50.948;6.590;2023-07-20T03:28:31;19.90;93.00
74171;DHT22;62526;50.948;6.590;2023-07-20T03:30:59;19.90;93.00
74171;DHT22;62526;50.948;6.590;2023-07-20T03:33:28;20.00;93.00
74171;DHT22;62526;50.948;6.590;2023-07-20T03:35:55;20.10;92.40
74171;DHT22;62526;50.948;6.590;2023-07-20T03:38:22;20.10;92.80
74171;DHT22;62526;50.948;6.590;2023-07-20T03:40:50;20.10;92.80
74171;DHT22;62526;50.948;6.590;2023-07-20T03:43:17;20.00;93.00
74171;DHT22;62526;50.948;6.590;2023-07-20T03:45:44;20.00;92.90
74171;DHT22;62526;50.948;6.590;2023-07-20T03:48:15;19.90;93.10
74171;DHT22;62526;50.948;6.590;2023-07-20T03:50:40;19.80;93.20
74171;DHT22;62526;50.948;6.590;2023-07-20T03:53:07;19.70;93.50
74171;DHT22;62526;50.948;6.590;2023-07-20T03:55:33;19.70;93.40
74171;DHT22;62526;50.948;6.590;2023-07-20T03:58:01;19.60;93.50
74171;DHT22;62526;50.948;6.590;2023-07-20T04:00:28;19.60;93.70
74171;DHT22;62526;50.948;6.590;2023-07-20T04:02:55;19.60;93.80
74171;DHT22;62526;50.948;6.590;2023-07-20T04:05:23;19.70;93.80
74171;DHT22;62526;50.948;6.590;2023-07-20T04:07:50;19.80;93.80
74171;DHT22;62526;50.948;6.590;2023-07-20T04:10:17;19.90;93.80
74171;DHT22;62526;50.948;6.590;2023-07-20T04:12:44;19.80;93.90
74171;DHT22;62526;50.948;6.590;2023-07-20T04:15:10;19.70;94.10
74171;DHT22;62526;50.948;6.590;2023-07-20T04:17:37;19.70;94.30
74171;DHT22;62526;50.948;6.590;2023-07-20T04:20:05;19.70;94.30
74171;DHT22;62526;50.948;6.590;2023-07-20T04:22:32;19.70;94.50
74171;DHT22;62526;50.948;6.590;2023-07-20T04:24:58;19.60;94.60
74171;DHT22;62526;50.948;6.590;2023-07-20T04:27:27;19.70;94.60
74171;DHT22;62526;50.948;6.590;2023-07-20T04:29:54;19.80;94.60
74171;DHT22;62526;50.948;6.590;2023-07-20T04:32:21;19.90;94.10
74171;DHT22;62526;50.948;6.590;2023-07-20T04:34:48;19.90;94.30
74171;DHT22;62526;50.948;6.590;2023-07-20T04:37:14;19.90;94.40
74171;DHT22;62526;50.948;6.590;2023-07-20T04:39:41;19.90;94.30
74171;DHT22;62526;50.948;6.590;2023-07-20T04:42:08;19.90;94.70
74171;DHT22;62526;50.948;6.590;2023-07-20T04:44:34;19.90;95.00
74171;DHT22;62526;50.948;6.590;2023-07-20T04:47:01;19.90;94.70
74171;DHT22;62526;50.948;6.590;2023-07-20T04:49:28;19.80;94.60
74171;DHT22;62526;50.948;6.590;2023-07-20T04:51:55;19.90;94.90
74171;DHT22;62526;50.948;6.590;2023-07-20T04:54:22;19.60;95.00
74171;DHT22;62526;50.948;6.590;2023-07-20T04:56:49;19.60;95.20
74171;DHT22;62526;50.948;6.590;2023-07-20T04:59:16;19.50;95.80
74171;DHT22;62526;50.948;6.590;2023-07-20T05:01:43;19.60;95.80
74171;DHT22;62526;50.948;6.590;2023-07-20T05:04:09;19.70;95.80
74171;DHT22;62526;50.948;6.590;2023-07-20T05:06:37;19.80;95.60
74171;DHT22;62526;50.948;6.590;2023-07-20T05:09:04;19.80;95.70
74171;DHT22;62526;50.948;6.590;2023-07-20T05:11:31;19.60;95.90
74171;DHT22;62526;50.948;6.590;2023-07-20T05:13:57;19.70;95.90
74171;DHT22;62526;50.948;6.590;2023-07-20T05:16:25;19.60;96.30
74171;DHT22;62526;50.948;6.590;2023-07-20T05:18:51;19.60;96.50
74171;DHT22;62526;50.948;6.590;2023-07-20T05:21:18;19.60;96.80
74171;DHT22;62526;50.948;6.590;2023-07-20T05:23:45;19.70;96.90
74171;DHT22;62526;50.948;6.590;2023-07-20T05:26:12;19.80;96.60
74171;DHT22;62526;50.948;6.590;2023-07-20T05:28:39;20.00;96.20
74171;DHT22;62526;50.948;6.590;2023-07-20T05:31:05;20.00;96.40
74171;DHT22;62526;50.948;6.590;2023-07-20T05:33:34;19.80;96.80
74171;DHT22;62526;50.948;6.590;2023-07-20T05:36:01;19.60;97.00
74171;DHT22;62526;50.948;6.590;2023-07-20T05:38:27;19.60;97.40
74171;DHT22;62526;50.948;6.590;2023-07-20T05:40:58;19.60;97.70
74171;DHT22;62526;50.948;6.590;2023-07-20T05:43:21;19.70;97.50
74171;DHT22;62526;50.948;6.590;2023-07-20T05:45:47;19.80;97.90
74171;DHT22;62526;50.948;6.590;2023-07-20T05:48:14;19.70;97.50
74171;DHT22;62526;50.948;6.590;2023-07-20T05:50:42;19.60;97.80
74171;DHT22;62526;50.948;6.590;2023-07-20T05:53:09;19.60;98.10
74171;DHT22;62526;50.948;6.590;2023-07-20T05:55:36;19.60;98.40
74171;DHT22;62526;50.948;6.590;2023-07-20T05:58:04;19.70;98.70
74171;DHT22;62526;50.948;6.590;2023-07-20T06:00:31;20.10;98.00
74171;DHT22;62526;50.948;6.590;2023-07-20T06:02:57;20.20;97.70
74171;DHT22;62526;50.948;6.590;2023-07-20T06:05:24;20.60;96.60
74171;DHT22;62526;50.948;6.590;2023-07-20T06:07:51;20.60;96.80
74171;DHT22;62526;50.948;6.590;2023-07-20T06:10:18;20.80;96.50
74171;DHT22;62526;50.948;6.590;2023-07-20T06:12:44;20.40;96.70
74171;DHT22;62526;50.948;6.590;2023-07-20T06:17:50;20.80;96.30
74171;DHT22;62526;50.948;6.590;2023-07-20T06:20:17;20.80;96.30
74171;DHT22;62526;50.948;6.590;2023-07-20T06:22:44;21.00;95.80
74171;DHT22;62526;50.948;6.590;2023-07-20T06:25:10;20.70;96.00
74171;DHT22;62526;50.948;6.590;2023-07-20T06:27:38;20.70;96.10
74171;DHT22;62526;50.948;6.590;2023-07-20T06:30:06;20.70;96.30
74171;DHT22;62526;50.948;6.590;2023-07-20T06:32:32;20.90;95.90
74171;DHT22;62526;50.948;6.590;2023-07-20T06:35:11;21.10;95.50
74171;DHT22;62526;50.948;6.590;2023-07-20T06:37:39;21.20;94.90
74171;DHT22;62526;50.948;6.590;2023-07-20T06:40:06;21.30;95.00
74171;DHT22;62526;50.948;6.590;2023-07-20T06:42:33;21.30;94.80
74171;DHT22;62526;50.948;6.590;2023-07-20T06:44:59;21.10;94.90
74171;DHT22;62526;50.948;6.590;2023-07-20T06:47:26;20.80;95.30
74171;DHT22;62526;50.948;6.590;2023-07-20T06:49:52;20.70;95.80
74171;DHT22;62526;50.948;6.590;2023-07-20T06:52:20;21.10;95.40
74171;DHT22;62526;50.948;6.590;2023-07-20T06:54:47;21.10;95.40
74171;DHT22;62526;50.948;6.590;2023-07-20T06:57:14;21.30;94.90
74171;DHT22;62526;50.948;6.590;2023-07-20T06:59:41;21.30;94.60
74171;DHT22;62526;50.948;6.590;2023-07-20T07:02:08;21.20;94.50
74171;DHT22;62526;50.948;6.590;2023-07-20T07:04:35;21.10;94.20
74171;DHT22;62526;50.948;6.590;2023-07-20T07:07:02;20.70;94.80
74171;DHT22;62526;50.948;6.590;2023-07-20T07:09:28;20.70;95.20
74171;DHT22;62526;50.948;6.590;2023-07-20T07:11:55;21.10;95.00
74171;DHT22;62526;50.948;6.590;2023-07-20T07:14:21;20.60;94.60
74171;DHT22;62526;50.948;6.590;2023-07-20T07:16:48;20.60;94.90
74171;DHT22;62526;50.948;6.590;2023-07-20T07:19:15;20.90;93.90
74171;DHT22;62526;50.948;6.590;2023-07-20T07:21:42;22.00;94.20
74171;DHT22;62526;50.948;6.590;2023-07-20T07:24:09;21.40;93.20
74171;DHT22;62526;50.948;6.590;2023-07-20T07:26:36;21.70;92.90
74171;DHT22;62526;50.948;6.590;2023-07-20T07:29:03;21.70;92.10
74171;DHT22;62526;50.948;6.590;2023-07-20T07:31:30;21.40;92.30
74171;DHT22;62526;50.948;6.590;2023-07-20T07:33:57;21.40;92.30
74171;DHT22;62526;50.948;6.590;2023-07-20T07:36:24;21.30;92.60
74171;DHT22;62526;50.948;6.590;2023-07-20T07:38:51;21.60;92.20
74171;DHT22;62526;50.948;6.590;2023-07-20T07:41:18;22.00;92.30
74171;DHT22;62526;50.948;6.590;2023-07-20T07:43:44;22.40;91.80
74171;DHT22;62526;50.948;6.590;2023-07-20T07:46:11;22.60;91.40
74171;DHT22;62526;50.948;6.590;2023-07-20T07:48:38;22.50;91.60
74171;DHT22;62526;50.948;6.590;2023-07-20T07:51:04;22.40;91.40
74171;DHT22;62526;50.948;6.590;2023-07-20T07:53:33;22.30;90.60
74171;DHT22;62526;50.948;6.590;2023-07-20T07:56:00;22.20;90.80
74171;DHT22;62526;50.948;6.590;2023-07-20T07:58:27;22.20;90.80
74171;DHT22;62526;50.948;6.590;2023-07-20T08:00:54;22.50;90.00
74171;DHT22;62526;50.948;6.590;2023-07-20T08:03:20;22.80;89.80
74171;DHT22;62526;50.948;6.590;2023-07-20T08:05:47;23.00;89.10
74171;DHT22;62526;50.948;6.590;2023-07-20T08:08:14;23.20;88.60
74171;DHT22;62526;50.948;6.590;2023-07-20T08:10:40;23.60;86.10
74171;DHT22;62526;50.948;6.590;2023-07-20T08:13:07;23.70;82.20
74171;DHT22;62526;50.948;6.590;2023-07-20T08:15:33;23.70;83.90
74171;DHT22;62526;50.948;6.590;2023-07-20T08:18:01;23.80;84.40
74171;DHT22;62526;50.948;6.590;2023-07-20T08:20:28;23.50;84.00
74171;DHT22;62526;50.948;6.590;2023-07-20T08:22:54;22.80;86.60
74171;DHT22;62526;50.948;6.590;2023-07-20T08:25:21;22.80;86.80
74171;DHT22;62526;50.948;6.590;2023-07-20T08:27:47;22.70;87.40
74171;DHT22;62526;50.948;6.590;2023-07-20T08:30:14;22.90;86.80
74171;DHT22;62526;50.948;6.590;2023-07-20T08:32:41;22.90;85.10
74171;DHT22;62526;50.948;6.590;2023-07-20T08:35:08;23.10;84.00
74171;DHT22;62526;50.948;6.590;2023-07-20T08:37:35;23.20;83.40
74171;DHT22;62526;50.948;6.590;2023-07-20T08:40:02;23.40;83.00
74171;DHT22;62526;50.948;6.590;2023-07-20T08:42:29;23.50;81.10
74171;DHT22;62526;50.948;6.590;2023-07-20T08:44:55;23.60;81.20
74171;DHT22;62526;50.948;6.590;2023-07-20T08:47:22;23.90;81.40
74171;DHT22;62526;50.948;6.590;2023-07-20T08:49:49;24.30;80.70
74171;DHT22;62526;50.948;6.590;2023-07-20T08:52:15;24.50;78.60
74171;DHT22;62526;50.948;6.590;2023-07-20T08:54:42;24.40;78.80
74171;DHT22;62526;50.948;6.590;2023-07-20T08:57:09;24.30;78.90
74171;DHT22;62526;50.948;6.590;2023-07-20T08:59:36;24.30;79.50
74171;DHT22;62526;50.948;6.590;2023-07-20T09:02:03;24.40;79.70
74171;DHT22;62526;50.948;6.590;2023-07-20T09:04:30;24.60;78.80
74171;DHT22;62526;50.948;6.590;2023-07-20T09:06:57;24.70;78.30
74171;DHT22;62526;50.948;6.590;2023-07-20T09:09:24;24.70;78.30
74171;DHT22;62526;50.948;6.590;2023-07-20T09:11:51;24.50;76.60
74171;DHT22;62526;50.948;6.590;2023-07-20T09:14:17;24.30;77.30
74171;DHT22;62526;50.948;6.590;2023-07-20T09:16:48;24.30;78.00
74171;DHT22;62526;50.948;6.590;2023-07-20T09:19:15;24.50;75.70
74171;DHT22;62526;50.948;6.590;2023-07-20T09:21:45;24.20;75.10
74171;DHT22;62526;50.948;6.590;2023-07-20T09:24:11;24.20;76.10
74171;DHT22;62526;50.948;6.590;2023-07-20T09:26:42;24.30;75.70
74171;DHT22;62526;50.948;6.590;2023-07-20T09:29:09;24.40;72.70
74171;DHT22;62526;50.948;6.590;2023-07-20T09:31:35;24.40;71.40
74171;DHT22;62526;50.948;6.590;2023-07-20T09:34:02;24.50;70.30
74171;DHT22;62526;50.948;6.590;2023-07-20T09:36:29;24.60;73.30
74171;DHT22;62526;50.948;6.590;2023-07-20T09:38:56;24.60;74.30
74171;DHT22;62526;50.948;6.590;2023-07-20T09:41:22;24.70;73.70
74171;DHT22;62526;50.948;6.590;2023-07-20T09:43:49;24.90;74.80
74171;DHT22;62526;50.948;6.590;2023-07-20T09:46:16;25.10;73.70
74171;DHT22;62526;50.948;6.590;2023-07-20T09:48:51;25.30;73.10
74171;DHT22;62526;50.948;6.590;2023-07-20T09:51:09;25.60;71.80
74171;DHT22;62526;50.948;6.590;2023-07-20T09:53:36;26.00;70.50
74171;DHT22;62526;50.948;6.590;2023-07-20T09:56:04;26.00;69.00
74171;DHT22;62526;50.948;6.590;2023-07-20T09:58:31;25.50;70.20
74171;DHT22;62526;50.948;6.590;2023-07-20T10:00:58;25.00;70.30
74171;DHT22;62526;50.948;6.590;2023-07-20T10:03:28;24.70;72.60
74171;DHT22;62526;50.948;6.590;2023-07-20T10:05:56;25.20;72.30
74171;DHT22;62526;50.948;6.590;2023-07-20T10:08:23;25.20;72.20
74171;DHT22;62526;50.948;6.590;2023-07-20T10:10:48;25.50;70.50
74171;DHT22;62526;50.948;6.590;2023-07-20T10:13:17;25.40;69.80
74171;DHT22;62526;50.948;6.590;2023-07-20T10:15:46;22.30;67.60
74171;DHT22;62526;50.948;6.590;2023-07-20T10:18:12;25.40;70.60
74171;DHT22;62526;50.948;6.590;2023-07-20T10:20:39;25.80;68.70
74171;DHT22;62526;50.948;6.590;2023-07-20T10:23:05;26.20;66.00
74171;DHT22;62526;50.948;6.590;2023-07-20T10:25:32;26.30;63.90
74171;DHT22;62526;50.948;6.590;2023-07-20T10:27:59;26.50;63.60
74171;DHT22;62526;50.948;6.590;2023-07-20T10:30:26;26.50;62.20
74171;DHT22;62526;50.948;6.590;2023-07-20T10:33:04;26.80;61.60
74171;DHT22;62526;50.948;6.590;2023-07-20T10:35:50;26.90;59.90
74171;DHT22;62526;50.948;6.590;2023-07-20T10:38:00;27.30;62.50
74171;DHT22;62526;50.948;6.590;2023-07-20T10:40:30;27.20;62.00
74171;DHT22;62526;50.948;6.590;2023-07-20T10:43:00;26.50;61.40
74171;DHT22;62526;50.948;6.590;2023-07-20T10:45:33;26.30;62.30
74171;DHT22;62526;50.948;6.590;2023-07-20T10:47:59;26.50;61.00
74171;DHT22;62526;50.948;6.590;2023-07-20T10:50:26;26.90;59.30
74171;DHT22;62526;50.948;6.590;2023-07-20T10:53:04;27.10;58.60
74171;DHT22;62526;50.948;6.590;2023-07-20T10:55:32;27.00;58.40
74171;DHT22;62526;50.948;6.590;2023-07-20T10:58:11;27.30;58.50
74171;DHT22;62526;50.948;6.590;2023-07-20T11:00:38;27.30;58.20
74171;DHT22;62526;50.948;6.590;2023-07-20T11:03:05;27.60;58.40
74171;DHT22;62526;50.948;6.590;2023-07-20T11:05:34;27.90;58.80
74171;DHT22;62526;50.948;6.590;2023-07-20T11:08:00;28.40;57.80
74171;DHT22;62526;50.948;6.590;2023-07-20T11:10:26;28.70;56.30
74171;DHT22;62526;50.948;6.590;2023-07-20T11:16:03;29.00;56.50
74171;DHT22;62526;50.948;6.590;2023-07-20T11:18:15;28.90;57.30
74171;DHT22;62526;50.948;6.590;2023-07-20T11:20:42;28.70;58.80
74171;DHT22;62526;50.948;6.590;2023-07-20T11:23:08;28.50;58.60
74171;DHT22;62526;50.948;6.590;2023-07-20T11:25:38;28.50;58.30
74171;DHT22;62526;50.948;6.590;2023-07-20T11:28:06;28.60;58.50
74171;DHT22;62526;50.948;6.590;2023-07-20T11:30:32;28.20;57.00
74171;DHT22;62526;50.948;6.590;2023-07-20T11:32:57;27.80;58.60
74171;DHT22;62526;50.948;6.590;2023-07-20T11:35:24;27.80;58.80
74171;DHT22;62526;50.948;6.590;2023-07-20T11:37:51;27.70;58.80
74171;DHT22;62526;50.948;6.590;2023-07-20T11:40:18;27.50;58.50
74171;DHT22;62526;50.948;6.590;2023-07-20T11:42:44;27.40;59.40
74171;DHT22;62526;50.948;6.590;2023-07-20T11:45:11;27.20;58.80
74171;DHT22;62526;50.948;6.590;2023-07-20T11:47:40;27.10;59.10
74171;DHT22;62526;50.948;6.590;2023-07-20T11:50:07;27.20;59.50
74171;DHT22;62526;50.948;6.590;2023-07-20T11:52:33;27.30;59.10
74171;DHT22;62526;50.948;6.590;2023-07-20T11:55:00;27.10;58.90
74171;DHT22;62526;50.948;6.590;2023-07-20T11:57:27;27.30;57.20
74171;DHT22;62526;50.948;6.590;2023-07-20T11:59:55;27.20;56.70
74171;DHT22;62526;50.948;6.590;2023-07-20T12:02:24;27.30;57.20
74171;DHT22;62526;50.948;6.590;2023-07-20T12:04:51;27.60;56.00
74171;DHT22;62526;50.948;6.590;2023-07-20T12:07:18;27.60;55.80
74171;DHT22;62526;50.948;6.590;2023-07-20T12:10:02;27.80;55.50
74171;DHT22;62526;50.948;6.590;2023-07-20T12:12:12;28.00;55.90
74171;DHT22;62526;50.948;6.590;2023-07-20T12:14:40;27.80;56.00
74171;DHT22;62526;50.948;6.590;2023-07-20T12:17:07;27.60;56.60
74171;DHT22;62526;50.948;6.590;2023-07-20T12:19:37;27.40;57.30
74171;DHT22;62526;50.948;6.590;2023-07-20T12:22:00;26.30;59.60
74171;DHT22;62526;50.948;6.590;2023-07-20T12:24:26;26.30;59.10
74171;DHT22;62526;50.948;6.590;2023-07-20T12:26:56;26.30;59.70
74171;DHT22;62526;50.948;6.590;2023-07-20T12:29:24;26.20;59.70
74171;DHT22;62526;50.948;6.590;2023-07-20T12:31:50;26.30;59.70
74171;DHT22;62526;50.948;6.590;2023-07-20T12:34:17;26.30;60.30
74171;DHT22;62526;50.948;6.590;2023-07-20T12:36:44;26.10;59.20
74171;DHT22;62526;50.948;6.590;2023-07-20T12:39:11;26.10;59.80
74171;DHT22;62526;50.948;6.590;2023-07-20T12:41:38;26.40;60.20
74171;DHT22;62526;50.948;6.590;2023-07-20T12:44:04;26.70;60.10
74171;DHT22;62526;50.948;6.590;2023-07-20T12:46:31;26.80;59.30
74171;DHT22;62526;50.948;6.590;2023-07-20T12:48:58;26.70;58.90
74171;DHT22;62526;50.948;6.590;2023-07-20T12:51:27;26.80;58.70
74171;DHT22;62526;50.948;6.590;2023-07-20T12:53:53;26.90;58.80
74171;DHT22;62526;50.948;6.590;2023-07-20T12:56:20;26.40;58.90
74171;DHT22;62526;50.948;6.590;2023-07-20T12:58:49;26.40;58.80
74171;DHT22;62526;50.948;6.590;2023-07-20T13:01:16;26.40;58.00
74171;DHT22;62526;50.948;6.590;2023-07-20T13:03:43;26.00;58.60
74171;DHT22;62526;50.948;6.590;2023-07-20T13:06:09;26.00;59.30
74171;DHT22;62526;50.948;6.590;2023-07-20T13:08:36;26.10;59.00
74171;DHT22;62526;50.948;6.590;2023-07-20T13:11:03;26.30;58.00
74171;DHT22;62526;50.948;6.590;2023-07-20T13:13:30;26.10;58.80
74171;DHT22;62526;50.948;6.590;2023-07-20T13:15:58;26.50;58.80
74171;DHT22;62526;50.948;6.590;2023-07-20T13:21:11;26.70;56.10
74171;DHT22;62526;50.948;6.590;2023-07-20T13:23:38;26.50;55.50
74171;DHT22;62526;50.948;6.590;2023-07-20T13:26:04;26.80;55.60
74171;DHT22;62526;50.948;6.590;2023-07-20T13:28:32;26.80;55.00
74171;DHT22;62526;50.948;6.590;2023-07-20T13:30:58;27.00;55.00
74171;DHT22;62526;50.948;6.590;2023-07-20T13:33:27;27.30;54.70
74171;DHT22;62526;50.948;6.590;2023-07-20T13:35:54;27.50;52.60
74171;DHT22;62526;50.948;6.590;2023-07-20T13:38:21;27.00;54.20
74171;DHT22;62526;50.948;6.590;2023-07-20T13:40:48;27.00;54.10
74171;DHT22;62526;50.948;6.590;2023-07-20T13:43:15;27.30;54.50
74171;DHT22;62526;50.948;6.590;2023-07-20T13:45:42;27.80;54.00
74171;DHT22;62526;50.948;6.590;2023-07-20T13:48:08;28.70;51.70
74171;DHT22;62526;50.948;6.590;2023-07-20T13:50:35;29.90;48.20
74171;DHT22;62526;50.948;6.590;2023-07-20T13:53:02;30.40;47.40
74171;DHT22;62526;50.948;6.590;2023-07-20T13:55:28;30.90;47.10
74171;DHT22;62526;50.948;6.590;2023-07-20T13:57:55;30.60;45.00
74171;DHT22;62526;50.948;6.590;2023-07-20T14:00:22;30.20;45.80
74171;DHT22;62526;50.948;6.590;2023-07-20T14:02:48;30.10;46.90
74171;DHT22;62526;50.948;6.590;2023-07-20T14:05:16;31.10;45.60
74171;DHT22;62526;50.948;6.590;2023-07-20T14:07:43;32.00;44.70
74171;DHT22;62526;50.948;6.590;2023-07-20T14:10:10;32.50;44.30
74171;DHT22;62526;50.948;6.590;2023-07-20T14:12:37;32.10;43.90
74171;DHT22;62526;50.948;6.590;2023-07-20T14:15:04;32.90;43.70
74171;DHT22;62526;50.948;6.590;2023-07-20T14:17:31;33.70;42.20
74171;DHT22;62526;50.948;6.590;2023-07-20T14:19:59;34.20;40.80
74171;DHT22;62526;50.948;6.590;2023-07-20T14:22:25;34.20;40.70
74171;DHT22;62526;50.948;6.590;2023-07-20T14:24:52;34.30;40.90
74171;DHT22;62526;50.948;6.590;2023-07-20T14:27:19;34.40;41.50
74171;DHT22;62526;50.948;6.590;2023-07-20T14:29:45;35.10;40.50
74171;DHT22;62526;50.948;6.590;2023-07-20T14:32:12;35.40;39.00
74171;DHT22;62526;50.948;6.590;2023-07-20T14:34:39;34.30;40.10
74171;DHT22;62526;50.948;6.590;2023-07-20T14:37:06;33.10;41.70
74171;DHT22;62526;50.948;6.590;2023-07-20T14:39:33;32.50;43.40
74171;DHT22;62526;50.948;6.590;2023-07-20T14:42:00;32.10;44.00
74171;DHT22;62526;50.948;6.590;2023-07-20T14:44:27;31.90;43.10
74171;DHT22;62526;50.948;6.590;2023-07-20T14:46:53;31.70;43.30
74171;DHT22;62526;50.948;6.590;2023-07-20T14:49:20;32.00;42.90
74171;DHT22;62526;50.948;6.590;2023-07-20T14:51:47;32.70;42.10
74171;DHT22;62526;50.948;6.590;2023-07-20T14:54:13;32.70;40.30
74171;DHT22;62526;50.948;6.590;2023-07-20T14:56:45;32.10;41.20
74171;DHT22;62526;50.948;6.590;2023-07-20T14:59:07;31.80;42.00
74171;DHT22;62526;50.948;6.590;2023-07-20T15:01:33;31.60;42.50
74171;DHT22;62526;50.948;6.590;2023-07-20T15:04:01;31.40;42.70
74171;DHT22;62526;50.948;6.590;2023-07-20T15:06:28;31.60;43.30
74171;DHT22;62526;50.948;6.590;2023-07-20T15:08:54;32.00;42.90
74171;DHT22;62526;50.948;6.590;2023-07-20T15:11:21;31.90;42.80
74171;DHT22;62526;50.948;6.590;2023-07-20T15:13:48;32.10;41.60
74171;DHT22;62526;50.948;6.590;2023-07-20T15:16:15;32.70;41.30
74171;DHT22;62526;50.948;6.590;2023-07-20T15:18:43;33.30;40.70
74171;DHT22;62526;50.948;6.590;2023-07-20T15:21:11;33.90;39.40
74171;DHT22;62526;50.948;6.590;2023-07-20T15:23:37;34.40;39.60
74171;DHT22;62526;50.948;6.590;2023-07-20T15:26:05;34.80;39.00
74171;DHT22;62526;50.948;6.590;2023-07-20T15:28:31;35.10;40.30
74171;DHT22;62526;50.948;6.590;2023-07-20T15:31:00;35.40;40.00
74171;DHT22;62526;50.948;6.590;2023-07-20T15:33:27;35.70;39.30
74171;DHT22;62526;50.948;6.590;2023-07-20T15:35:53;35.60;39.20
74171;DHT22;62526;50.948;6.590;2023-07-20T15:38:20;35.50;38.60
74171;DHT22;62526;50.948;6.590;2023-07-20T15:40:47;35.30;38.90
74171;DHT22;62526;50.948;6.590;2023-07-20T15:43:15;35.40;37.60